createdAt,value
2018-01-26T00:01:22.677Z,34.77
2018-01-26T00:03:50.187Z,42.80
2018-01-26T00:06:17.805Z,51.63
2018-01-26T00:08:45.354Z,52.37
2018-01-26T00:11:12.898Z,58.57
2018-01-26T00:13:40.433Z,52.17
2018-01-26T00:16:07.974Z,49.83
2018-01-26T00:18:35.485Z,52.93
2018-01-26T00:21:02.989Z,38.50
2018-01-26T00:23:30.629Z,37.70
2018-01-26T00:25:58.142Z,45.80
2018-01-26T00:28:25.685Z,44.37
2018-01-26T00:30:53.245Z,58.10
2018-01-26T00:33:20.768Z,41.07
2018-01-26T00:35:48.268Z,51.17
2018-01-26T00:38:15.835Z,51.50
2018-01-26T00:40:43.380Z,38.93
2018-01-26T00:43:10.892Z,44.50
2018-01-26T00:45:38.416Z,42.30
2018-01-26T00:48:05.948Z,40.73
2018-01-26T00:50:33.536Z,54.03
2018-01-26T00:53:01.074Z,42.73
2018-01-26T00:55:28.616Z,51.03
2018-01-26T00:57:56.167Z,51.20
2018-01-26T01:00:23.699Z,46.50
2018-01-26T01:02:51.261Z,52.97
2018-01-26T01:05:18.796Z,45.77
2018-01-26T01:07:46.311Z,48.97
2018-01-26T01:10:13.861Z,51.30
2018-01-26T01:12:41.416Z,51.23
2018-01-26T01:15:08.975Z,49.20
2018-01-26T01:17:36.520Z,51.77
2018-01-26T01:20:04.088Z,43.80
2018-01-26T01:22:31.596Z,49.17
2018-01-26T01:24:59.120Z,40.80
2018-01-26T01:27:26.643Z,49.03
2018-01-26T01:29:54.202Z,50.97
2018-01-26T01:32:21.732Z,46.90
2018-01-26T01:34:49.323Z,45.70
2018-01-26T01:37:16.848Z,51.23
2018-01-26T01:39:44.395Z,50.13
2018-01-26T01:42:11.999Z,48.83
2018-01-26T01:44:39.581Z,51.80
2018-01-26T01:47:07.112Z,50.00
2018-01-26T01:49:34.628Z,51.70
2018-01-26T01:52:02.344Z,51.20
2018-01-26T01:54:29.872Z,49.23
2018-01-26T01:56:57.405Z,51.57
2018-01-26T01:59:25.033Z,50.57
2018-01-26T02:01:52.582Z,49.40
2018-01-26T02:04:20.127Z,55.10
2018-01-26T02:06:47.648Z,52.67
2018-01-26T02:09:15.276Z,52.83
2018-01-26T02:11:42.850Z,46.83
2018-01-26T02:14:10.357Z,47.00
2018-01-26T02:16:38.041Z,49.50
2018-01-26T02:19:05.594Z,54.43
2018-01-26T02:21:33.155Z,45.40
2018-01-26T02:24:00.734Z,57.80
2018-01-26T02:26:28.494Z,49.90
2018-01-26T02:28:56.020Z,49.30
2018-01-26T02:31:23.552Z,50.70
2018-01-26T02:33:51.174Z,47.27
2018-01-26T02:36:18.700Z,47.17
2018-01-26T02:38:46.224Z,44.13
2018-01-26T02:41:13.752Z,67.27
2018-01-26T02:43:41.257Z,54.20
2018-01-26T02:46:08.819Z,45.60
2018-01-26T02:48:36.428Z,48.13
2018-01-26T02:51:03.943Z,47.17
2018-01-26T02:53:31.477Z,47.87
2018-01-26T02:55:59.105Z,43.70
2018-01-26T02:58:26.613Z,39.47
2018-01-26T03:00:54.309Z,40.23
2018-01-26T03:03:21.861Z,44.67
2018-01-26T03:05:49.445Z,46.23
2018-01-26T03:08:16.948Z,49.60
2018-01-26T03:10:44.565Z,45.77
2018-01-26T03:13:12.080Z,40.20
2018-01-26T03:15:39.774Z,50.30
2018-01-26T03:18:07.301Z,48.80
2018-01-26T03:20:34.888Z,49.20
2018-01-26T03:23:02.426Z,43.77
2018-01-26T03:25:29.933Z,43.87
2018-01-26T03:27:57.468Z,49.57
2018-01-26T03:30:25.027Z,53.33
2018-01-26T03:32:52.604Z,43.17
2018-01-26T03:35:20.113Z,48.93
2018-01-26T03:37:47.661Z,52.23
2018-01-26T03:40:15.213Z,53.50
2018-01-26T03:42:42.745Z,54.90
2018-01-26T03:45:10.769Z,51.77
2018-01-26T03:47:38.269Z,48.47
2018-01-26T03:50:05.803Z,49.00
2018-01-26T03:52:39.836Z,51.43
2018-01-26T03:55:07.368Z,47.30
2018-01-26T03:57:34.873Z,46.30
2018-01-26T04:00:02.496Z,55.53
2018-01-26T04:02:30.156Z,52.40
2018-01-26T04:04:57.696Z,49.93
2018-01-26T04:07:25.244Z,47.00
2018-01-26T04:09:52.772Z,45.13
2018-01-26T04:12:20.290Z,47.20
2018-01-26T04:14:47.856Z,42.77
2018-01-26T04:17:15.388Z,44.60
2018-01-26T04:19:42.967Z,43.57
2018-01-26T04:22:10.521Z,48.87
2018-01-26T04:24:38.029Z,41.20
2018-01-26T04:27:05.537Z,46.40
2018-01-26T04:29:33.075Z,45.13
2018-01-26T04:32:00.584Z,49.30
2018-01-26T04:34:28.123Z,55.67
2018-01-26T04:36:55.629Z,56.17
2018-01-26T04:39:23.172Z,59.47
2018-01-26T04:41:50.740Z,52.47
2018-01-26T04:44:18.253Z,46.23
2018-01-26T04:46:45.760Z,49.93
2018-01-26T04:49:13.371Z,51.03
2018-01-26T04:51:40.931Z,56.43
2018-01-26T04:54:08.433Z,54.67
2018-01-26T04:56:35.960Z,54.70
2018-01-26T04:59:03.480Z,57.97
2018-01-26T05:01:31.085Z,49.17
2018-01-26T05:03:58.596Z,57.53
2018-01-26T05:06:26.181Z,54.00
2018-01-26T05:08:53.697Z,57.13
2018-01-26T05:11:21.260Z,53.07
2018-01-26T05:13:48.887Z,53.07
2018-01-26T05:16:16.393Z,59.20
2018-01-26T05:18:43.894Z,60.80
2018-01-26T05:21:11.417Z,61.47
2018-01-26T05:23:38.922Z,65.43
2018-01-26T05:26:06.455Z,69.03
2018-01-26T05:28:33.980Z,69.50
2018-01-26T05:31:01.508Z,65.50
2018-01-26T05:33:29.051Z,67.20
2018-01-26T05:35:56.569Z,67.23
2018-01-26T05:38:24.169Z,68.17
2018-01-26T05:40:51.715Z,59.57
2018-01-26T05:43:19.292Z,65.00
2018-01-26T05:45:46.938Z,57.83
2018-01-26T05:48:14.440Z,62.93
2018-01-26T05:50:41.956Z,72.97
2018-01-26T05:53:09.468Z,63.13
2018-01-26T05:55:37.085Z,68.87
2018-01-26T05:58:04.626Z,65.50
2018-01-26T06:00:32.195Z,68.00
2018-01-26T06:02:59.719Z,67.70
2018-01-26T06:05:27.320Z,72.13
2018-01-26T06:07:54.972Z,70.00
2018-01-26T06:10:22.486Z,73.07
2018-01-26T06:12:50.025Z,69.40
2018-01-26T06:15:17.552Z,89.47
2018-01-26T06:17:45.086Z,89.83
2018-01-26T06:20:12.627Z,81.27
2018-01-26T06:22:40.169Z,83.40
2018-01-26T06:25:07.697Z,99.60
2018-01-26T06:27:35.241Z,77.20
2018-01-26T06:30:02.750Z,98.57
2018-01-26T06:32:30.296Z,76.20
2018-01-26T06:34:57.937Z,73.77
2018-01-26T06:37:25.455Z,78.50
2018-01-26T06:39:53.048Z,89.67
2018-01-26T06:42:20.708Z,91.57
2018-01-26T06:44:48.213Z,78.67
2018-01-26T06:47:15.721Z,82.50
2018-01-26T06:49:43.274Z,84.97
2018-01-26T06:52:10.858Z,82.10
2018-01-26T06:54:38.448Z,85.17
2018-01-26T06:57:05.960Z,76.50
2018-01-26T06:59:33.465Z,90.27
2018-01-26T07:02:01.020Z,76.87
2018-01-26T07:04:28.527Z,78.23
2018-01-26T07:06:56.029Z,81.33
2018-01-26T07:09:23.592Z,90.37
2018-01-26T07:11:51.182Z,78.63
2018-01-26T07:14:18.713Z,83.60
2018-01-26T07:16:46.338Z,86.60
2018-01-26T07:19:13.899Z,82.73
2018-01-26T07:21:41.477Z,93.23
2018-01-26T07:24:08.993Z,84.83
2018-01-26T07:26:36.575Z,91.30
2018-01-26T07:29:04.224Z,90.23
2018-01-26T07:31:31.738Z,97.07
2018-01-26T07:33:59.356Z,88.17
2018-01-26T07:36:26.900Z,98.63
2018-01-26T07:38:54.437Z,94.17
2018-01-26T07:41:21.988Z,96.90
2018-01-26T07:43:49.503Z,96.30
2018-01-26T07:46:17.035Z,110.93
2018-01-26T07:48:44.600Z,91.10
2018-01-26T07:51:12.176Z,84.70
2018-01-26T07:53:39.681Z,88.13
2018-01-26T07:56:07.285Z,102.77
2018-01-26T07:58:34.841Z,101.40
2018-01-26T08:01:02.362Z,105.77
2018-01-26T08:03:30.055Z,96.73
2018-01-26T08:05:57.645Z,94.13
2018-01-26T08:08:25.186Z,115.37
2018-01-26T08:10:52.748Z,82.23
2018-01-26T08:13:20.321Z,87.90
2018-01-26T08:15:47.849Z,86.10
2018-01-26T08:18:15.357Z,95.23
2018-01-26T08:20:42.970Z,91.37
2018-01-26T08:23:10.487Z,92.00
2018-01-26T08:25:38.014Z,96.10
2018-01-26T08:28:05.569Z,99.60
2018-01-26T08:30:33.102Z,94.23
2018-01-26T08:33:00.605Z,90.97
2018-01-26T08:35:28.165Z,93.07
2018-01-26T08:37:55.700Z,92.07
2018-01-26T08:40:23.243Z,85.53
2018-01-26T08:42:50.781Z,91.50
2018-01-26T08:45:18.358Z,80.00
2018-01-26T08:47:45.917Z,77.47
2018-01-26T08:50:13.492Z,88.50
2018-01-26T08:52:41.060Z,89.57
2018-01-26T08:55:19.405Z,85.40
2018-01-26T08:57:46.950Z,89.70
2018-01-26T09:00:14.468Z,79.60
2018-01-26T09:02:41.997Z,88.63
2018-01-26T09:05:09.558Z,83.23
2018-01-26T09:07:37.092Z,79.80
2018-01-26T09:10:04.665Z,84.43
2018-01-26T09:12:32.262Z,84.70
2018-01-26T09:14:59.769Z,86.03
2018-01-26T09:17:27.492Z,91.63
2018-01-26T09:19:55.000Z,89.67
2018-01-26T09:22:22.512Z,83.87
2018-01-26T09:24:50.076Z,90.93
2018-01-26T09:27:17.649Z,89.73
2018-01-26T09:29:45.178Z,92.50
2018-01-26T09:32:12.713Z,94.83
2018-01-26T09:34:40.296Z,88.10
2018-01-26T09:37:07.857Z,96.20
2018-01-26T09:39:35.389Z,89.33
2018-01-26T09:42:02.952Z,85.20
2018-01-26T09:44:30.508Z,91.13
2018-01-26T09:46:58.094Z,94.13
2018-01-26T09:49:25.723Z,83.50
2018-01-26T09:51:53.256Z,87.53
2018-01-26T09:54:20.785Z,88.23
2018-01-26T09:56:48.330Z,86.87
2018-01-26T09:59:16.198Z,79.90
2018-01-26T10:01:43.729Z,81.87
2018-01-26T10:04:11.316Z,82.23
2018-01-26T10:06:38.870Z,86.27
2018-01-26T10:09:06.372Z,87.87
2018-01-26T10:11:33.912Z,73.70
2018-01-26T10:14:01.558Z,79.00
2018-01-26T10:16:29.063Z,78.60
2018-01-26T10:18:56.594Z,86.03
2018-01-26T10:21:24.141Z,83.53
2018-01-26T10:23:51.664Z,84.37
2018-01-26T10:26:19.358Z,80.67
2018-01-26T10:28:46.901Z,84.60
2018-01-26T10:31:14.474Z,85.00
2018-01-26T10:33:42.001Z,90.73
2018-01-26T10:36:09.508Z,113.27
2018-01-26T10:38:37.013Z,99.87
2018-01-26T10:41:04.557Z,96.03
2018-01-26T10:43:32.074Z,95.00
2018-01-26T10:45:59.604Z,93.10
2018-01-26T10:48:27.136Z,102.63
2018-01-26T10:50:54.692Z,112.87
2018-01-26T10:53:22.244Z,119.80
2018-01-26T10:55:49.781Z,113.17
2018-01-26T10:58:17.314Z,107.83
2018-01-26T11:00:44.846Z,116.73
2018-01-26T11:03:12.453Z,124.20
2018-01-26T11:05:39.990Z,131.03
2018-01-26T11:08:07.548Z,119.57
2018-01-26T11:10:35.065Z,138.33
2018-01-26T11:13:02.595Z,134.17
2018-01-26T11:15:30.122Z,126.80
2018-01-26T11:17:57.680Z,134.57
2018-01-26T11:20:25.257Z,118.43
2018-01-26T11:22:52.789Z,127.30
2018-01-26T11:25:20.344Z,121.53
2018-01-26T11:27:47.934Z,121.90
2018-01-26T11:30:15.475Z,148.63
2018-01-26T11:32:43.005Z,123.73
2018-01-26T11:35:10.869Z,123.70
2018-01-26T11:37:38.405Z,127.20
2018-01-26T11:40:06.060Z,126.90
2018-01-26T11:42:33.647Z,130.70
2018-01-26T11:45:01.260Z,114.23
2018-01-26T11:47:28.805Z,110.50
2018-01-26T11:49:56.316Z,105.77
2018-01-26T11:52:23.874Z,119.47
2018-01-26T11:54:51.400Z,119.47
2018-01-26T11:57:18.905Z,111.47
2018-01-26T11:59:46.466Z,120.20
2018-01-26T12:02:14.092Z,100.97
2018-01-26T12:04:41.594Z,95.73
2018-01-26T12:07:09.108Z,108.07
2018-01-26T12:09:36.649Z,122.13
2018-01-26T12:12:04.188Z,110.20
2018-01-26T12:14:31.758Z,118.33
2018-01-26T12:16:59.287Z,109.53
2018-01-26T12:19:26.812Z,94.40
2018-01-26T12:21:54.349Z,101.80
2018-01-26T12:24:21.875Z,110.77
2018-01-26T12:26:49.405Z,85.43
2018-01-26T12:29:16.930Z,79.33
2018-01-26T12:31:44.485Z,61.60
2018-01-26T12:34:12.005Z,63.50
2018-01-26T12:36:39.552Z,58.63
2018-01-26T12:39:07.139Z,64.03
2018-01-26T12:41:34.670Z,47.47
2018-01-26T12:44:02.183Z,41.73
2018-01-26T12:46:29.708Z,45.80
2018-01-26T12:48:57.405Z,38.63
2018-01-26T12:51:24.932Z,34.33
2018-01-26T12:53:52.527Z,37.80
2018-01-26T12:56:20.236Z,31.83
2018-01-26T12:58:47.781Z,25.83
2018-01-26T13:01:15.326Z,37.50
2018-01-26T13:03:42.878Z,25.50
2018-01-26T13:06:10.410Z,28.23
2018-01-26T13:08:37.929Z,26.87
2018-01-26T13:11:05.461Z,25.20
2018-01-26T13:13:32.995Z,29.40
2018-01-26T13:16:00.554Z,22.30
2018-01-26T13:18:28.085Z,28.73
2018-01-26T13:20:55.604Z,19.60
2018-01-26T13:23:23.193Z,17.93
2018-01-26T13:25:50.714Z,18.50
2018-01-26T13:28:18.262Z,18.13
2018-01-26T13:30:45.818Z,22.80
2018-01-26T13:33:13.323Z,26.73
2018-01-26T13:35:40.885Z,21.03
2018-01-26T13:38:08.409Z,17.40
2018-01-26T13:40:35.916Z,19.23
2018-01-26T13:43:03.461Z,15.17
2018-01-26T13:45:30.985Z,16.93
2018-01-26T13:47:58.631Z,17.90
2018-01-26T13:50:26.213Z,26.00
2018-01-26T13:52:53.760Z,18.60
2018-01-26T13:55:21.286Z,18.63
2018-01-26T13:57:48.823Z,15.83
2018-01-26T14:00:16.350Z,21.20
2018-01-26T14:02:43.903Z,18.27
2018-01-26T14:05:12.279Z,22.83
2018-01-26T14:07:39.810Z,16.30
2018-01-26T14:10:07.325Z,14.23
2018-01-26T14:12:34.873Z,14.70
2018-01-26T14:15:02.419Z,18.23
2018-01-26T14:17:29.963Z,19.80
2018-01-26T14:19:58.414Z,16.50
2018-01-26T14:22:25.959Z,12.20
2018-01-26T14:24:53.489Z,16.90
2018-01-26T14:27:21.020Z,12.87
2018-01-26T14:29:48.787Z,17.40
2018-01-26T14:32:16.608Z,16.00
2018-01-26T14:34:44.209Z,8.53
2018-01-26T14:37:11.764Z,12.27
2018-01-26T14:39:39.297Z,13.73
2018-01-26T14:42:06.797Z,11.10
2018-01-26T14:44:34.469Z,21.90
2018-01-26T14:47:02.010Z,20.57
2018-01-26T14:49:29.536Z,15.73
2018-01-26T14:51:57.067Z,17.90
2018-01-26T14:54:24.589Z,13.83
2018-01-26T14:56:52.129Z,21.10
2018-01-26T14:59:19.702Z,20.47
2018-01-26T15:01:47.237Z,20.30
2018-01-26T15:04:14.792Z,15.73
2018-01-26T15:06:42.316Z,19.43
2018-01-26T15:09:09.852Z,24.43
2018-01-26T15:11:37.404Z,20.47
2018-01-26T15:14:04.944Z,25.27
2018-01-26T15:16:32.496Z,21.77
2018-01-26T15:19:00.043Z,21.93
2018-01-26T15:21:27.577Z,17.47
2018-01-26T15:23:55.298Z,22.30
2018-01-26T15:26:22.814Z,19.03
2018-01-26T15:28:50.323Z,30.10
2018-01-26T15:31:17.844Z,22.00
2018-01-26T15:33:45.352Z,13.73
2018-01-26T15:36:12.883Z,30.30
2018-01-26T15:38:40.400Z,11.57
2018-01-26T15:41:08.021Z,14.40
2018-01-26T15:43:35.578Z,19.13
2018-01-26T15:46:03.084Z,12.20
2018-01-26T15:48:30.633Z,14.27
2018-01-26T15:50:58.135Z,16.00
2018-01-26T15:53:25.733Z,15.90
2018-01-26T15:55:53.257Z,22.37
2018-01-26T15:58:20.764Z,15.37
2018-01-26T16:00:48.328Z,19.60
2018-01-26T16:03:15.849Z,18.77
2018-01-26T16:05:43.429Z,20.33
2018-01-26T16:08:10.973Z,18.30
2018-01-26T16:10:38.545Z,11.70
2018-01-26T16:13:06.092Z,18.23
2018-01-26T16:15:33.624Z,18.50
2018-01-26T16:18:01.208Z,17.83
2018-01-26T16:20:28.808Z,18.50
2018-01-26T16:22:56.369Z,15.00
2018-01-26T16:25:23.908Z,19.70
2018-01-26T16:27:51.439Z,21.30
2018-01-26T16:30:18.988Z,18.97
2018-01-26T16:32:46.521Z,30.80
2018-01-26T16:35:14.026Z,20.97
2018-01-26T16:37:41.686Z,31.03
2018-01-26T16:40:09.225Z,21.70
2018-01-26T16:42:36.834Z,23.33
2018-01-26T16:45:04.574Z,22.20
2018-01-26T16:47:32.073Z,21.53
2018-01-26T16:49:59.600Z,24.30
2018-01-26T16:52:27.132Z,29.13
2018-01-26T16:54:54.651Z,23.40
2018-01-26T16:57:22.372Z,24.53
2018-01-26T16:59:49.945Z,24.63
2018-01-26T17:02:17.476Z,24.23
2018-01-26T17:04:45.022Z,32.13
2018-01-26T17:07:12.537Z,35.97
2018-01-26T17:09:40.075Z,35.47
2018-01-26T17:12:07.626Z,32.10
2018-01-26T17:14:35.179Z,28.20
2018-01-26T17:17:02.739Z,30.53
2018-01-26T17:19:30.343Z,34.93
2018-01-26T17:21:58.135Z,37.63
2018-01-26T17:24:25.688Z,28.90
2018-01-26T17:26:53.248Z,34.10
2018-01-26T17:29:20.764Z,33.20
2018-01-26T17:31:48.324Z,41.40
2018-01-26T17:34:16.296Z,38.67
2018-01-26T17:36:43.813Z,33.43
2018-01-26T17:39:11.381Z,32.07
2018-01-26T17:41:38.894Z,34.87
2018-01-26T17:44:06.397Z,35.67
2018-01-26T17:46:33.917Z,36.17
2018-01-26T17:49:01.445Z,34.73
2018-01-26T17:51:28.970Z,30.83
2018-01-26T17:53:56.565Z,33.83
2018-01-26T17:56:24.122Z,38.93
2018-01-26T17:58:51.786Z,38.23
2018-01-26T18:01:19.292Z,45.83
2018-01-26T18:03:46.845Z,40.33
2018-01-26T18:06:14.467Z,41.27
2018-01-26T18:08:41.991Z,36.40
2018-01-26T18:11:09.520Z,38.20
2018-01-26T18:13:37.042Z,39.03
2018-01-26T18:16:04.623Z,36.43
2018-01-26T18:18:32.176Z,41.40
2018-01-26T18:20:59.706Z,30.43
2018-01-26T18:23:27.253Z,27.97
2018-01-26T18:25:54.796Z,32.20
2018-01-26T18:28:22.393Z,28.63
2018-01-26T18:30:49.937Z,36.83
2018-01-26T18:33:17.505Z,36.90
2018-01-26T18:35:45.062Z,34.23
2018-01-26T18:38:12.576Z,29.13
2018-01-26T18:40:40.077Z,30.83
2018-01-26T18:43:07.961Z,36.83
2018-01-26T18:45:35.520Z,36.27
2018-01-26T18:48:03.051Z,32.90
2018-01-26T18:50:30.625Z,34.30
2018-01-26T18:52:58.129Z,33.40
2018-01-26T18:55:25.668Z,36.03
2018-01-26T18:57:53.215Z,35.10
2018-01-26T19:00:20.757Z,43.63
2018-01-26T19:02:48.357Z,41.00
2018-01-26T19:05:15.920Z,39.33
2018-01-26T19:07:43.570Z,35.97
2018-01-26T19:10:11.095Z,38.13
2018-01-26T19:12:38.637Z,32.80
2018-01-26T19:15:06.232Z,31.13
2018-01-26T19:17:33.781Z,46.37
2018-01-26T19:20:01.327Z,41.27
2018-01-26T19:22:28.894Z,51.80
2018-01-26T19:24:56.420Z,39.10
2018-01-26T19:27:23.939Z,46.90
2018-01-26T19:29:51.445Z,48.80
2018-01-26T19:32:18.992Z,47.67
2018-01-26T19:34:46.515Z,39.33
2018-01-26T19:37:14.081Z,39.57
2018-01-26T19:39:41.613Z,43.80
2018-01-26T19:42:09.143Z,47.10
2018-01-26T19:44:36.644Z,47.77
2018-01-26T19:47:04.192Z,47.13
2018-01-26T19:49:31.721Z,51.50
2018-01-26T19:51:59.320Z,62.77
2018-01-26T19:54:26.904Z,53.77
2018-01-26T19:56:54.434Z,46.93
2018-01-26T19:59:21.981Z,47.03
2018-01-26T20:01:49.576Z,53.50
2018-01-26T20:07:29.019Z,36.27
2018-01-26T20:09:56.545Z,36.57
2018-01-26T20:12:24.065Z,42.60
2018-01-26T20:14:51.713Z,44.87
2018-01-26T20:17:19.241Z,53.50
2018-01-26T20:19:46.780Z,47.27
2018-01-26T20:22:14.400Z,40.17
2018-01-26T20:24:41.924Z,48.53
2018-01-26T20:27:09.497Z,51.20
2018-01-26T20:29:37.026Z,37.27
2018-01-26T20:32:04.566Z,50.17
2018-01-26T20:34:32.109Z,58.43
2018-01-26T20:36:59.649Z,58.93
2018-01-26T20:39:27.208Z,39.77
2018-01-26T20:41:54.746Z,38.90
2018-01-26T20:44:22.282Z,50.80
2018-01-26T20:46:49.781Z,43.30
2018-01-26T20:49:17.329Z,65.53
2018-01-26T20:51:44.900Z,42.00
2018-01-26T20:54:12.443Z,47.00
2018-01-26T20:56:40.029Z,51.37
2018-01-26T20:59:07.565Z,55.27
2018-01-26T21:01:35.128Z,88.43
2018-01-26T21:04:02.656Z,59.87
2018-01-26T21:06:30.180Z,47.33
2018-01-26T21:08:57.717Z,59.03
2018-01-26T21:11:25.264Z,44.63
2018-01-26T21:13:52.789Z,44.70
2018-01-26T21:16:20.379Z,53.10
2018-01-26T21:18:47.905Z,53.00
2018-01-26T21:21:15.516Z,77.03
2018-01-26T21:23:43.033Z,50.83
2018-01-26T21:26:10.638Z,45.13
2018-01-26T21:28:38.151Z,55.10
2018-01-26T21:31:05.712Z,51.70
2018-01-26T21:33:33.249Z,59.93
2018-01-26T21:36:00.783Z,58.00
2018-01-26T21:38:28.311Z,50.53
2018-01-26T21:40:55.888Z,44.07
2018-01-26T21:43:23.456Z,68.23
2018-01-26T21:45:50.977Z,51.73
2018-01-26T21:48:18.496Z,52.17
2018-01-26T21:50:46.033Z,59.50
2018-01-26T21:53:13.593Z,50.53
2018-01-26T21:55:41.134Z,51.73
2018-01-26T21:58:08.690Z,55.27
2018-01-26T22:00:36.217Z,97.80
2018-01-26T22:03:03.901Z,71.07
2018-01-26T22:05:31.401Z,79.00
2018-01-26T22:07:58.926Z,55.87
2018-01-26T22:10:26.513Z,86.13
2018-01-26T22:12:54.035Z,68.80
2018-01-26T22:15:21.584Z,58.93
2018-01-26T22:17:49.166Z,91.70
2018-01-26T22:20:16.829Z,68.80
2018-01-26T22:22:44.402Z,109.13
2018-01-26T22:25:11.918Z,57.73
2018-01-26T22:27:39.477Z,56.23
2018-01-26T22:30:06.999Z,84.80
2018-01-26T22:32:34.510Z,95.07
2018-01-26T22:35:02.025Z,107.03
2018-01-26T22:37:29.527Z,70.10
2018-01-26T22:39:57.072Z,112.87
2018-01-26T22:42:24.652Z,102.63
2018-01-26T22:44:52.188Z,67.23
2018-01-26T22:47:19.700Z,71.17
2018-01-26T22:49:47.263Z,87.07
2018-01-26T22:52:14.773Z,62.00
2018-01-26T22:54:42.280Z,136.70
2018-01-26T22:57:09.797Z,91.43
2018-01-26T22:59:37.320Z,69.30
2018-01-26T23:02:04.873Z,136.33
2018-01-26T23:04:32.420Z,122.03
2018-01-26T23:06:59.949Z,70.30
2018-01-26T23:09:27.449Z,61.07
2018-01-26T23:11:54.976Z,83.50
2018-01-26T23:14:22.514Z,88.57
2018-01-26T23:16:50.019Z,138.53
2018-01-26T23:19:17.526Z,137.20
2018-01-26T23:21:45.332Z,108.73
2018-01-26T23:24:12.860Z,130.87
2018-01-26T23:26:40.361Z,61.97
2018-01-26T23:29:07.912Z,76.63
2018-01-26T23:31:35.434Z,100.27
2018-01-26T23:34:02.965Z,83.20
2018-01-26T23:36:30.523Z,83.20
2018-01-26T23:38:58.057Z,103.13
2018-01-26T23:41:25.621Z,82.80
2018-01-26T23:43:53.172Z,113.23
2018-01-26T23:46:20.697Z,114.40
2018-01-26T23:48:48.237Z,114.60
2018-01-26T23:51:15.809Z,106.53
2018-01-26T23:53:43.384Z,131.67
2018-01-26T23:56:10.898Z,155.50
2018-01-26T23:58:38.401Z,98.10
